createdAt,value
2023-02-24T00:02:04.376Z,73.13
2023-02-24T00:04:39.472Z,65.20
2023-02-24T00:07:10.875Z,69.50
2023-02-24T00:09:39.160Z,76.10
2023-02-24T00:12:09.088Z,69.37
2023-02-24T00:14:37.512Z,66.53
2023-02-24T00:17:06.201Z,73.10
2023-02-24T00:19:33.916Z,70.47
2023-02-24T00:22:02.166Z,72.67
2023-02-24T00:24:29.766Z,72.60
2023-02-24T00:29:46.029Z,70.50
2023-02-24T00:32:14.813Z,66.17
2023-02-24T00:34:43.205Z,71.90
2023-02-24T00:37:10.675Z,75.17
2023-02-24T00:39:41.474Z,81.67
2023-02-24T00:42:11.749Z,74.80
2023-02-24T00:44:45.283Z,85.27
2023-02-24T00:47:13.289Z,83.70
2023-02-24T00:49:44.251Z,80.77
2023-02-24T00:52:29.644Z,81.03
2023-02-24T00:54:57.761Z,85.10
2023-02-24T00:57:25.075Z,79.87
2023-02-24T00:59:52.411Z,80.13
2023-02-24T01:02:20.464Z,76.53
2023-02-24T01:04:49.910Z,76.07
2023-02-24T01:07:17.394Z,74.67
2023-02-24T01:09:45.180Z,71.37
2023-02-24T01:12:32.208Z,71.83
2023-02-24T01:14:59.548Z,68.33
2023-02-24T01:17:26.884Z,67.67
2023-02-24T01:19:55.073Z,67.37
2023-02-24T01:22:23.992Z,62.30
2023-02-24T01:24:51.345Z,63.83
2023-02-24T01:27:19.967Z,66.80
2023-02-24T01:29:48.074Z,63.53
2023-02-24T01:32:17.421Z,57.30
2023-02-24T01:34:45.197Z,53.10
2023-02-24T01:37:16.490Z,53.93
2023-02-24T01:39:45.297Z,48.50
2023-02-24T01:42:17.033Z,52.53
2023-02-24T01:44:44.334Z,49.47
2023-02-24T01:47:12.266Z,49.57
2023-02-24T01:49:44.550Z,46.33
2023-02-24T01:52:14.412Z,48.27
2023-02-24T01:55:02.797Z,42.80
2023-02-24T01:57:31.240Z,44.83
2023-02-24T02:00:09.379Z,39.97
2023-02-24T02:02:57.535Z,38.47
2023-02-24T02:05:25.504Z,41.13
2023-02-24T02:07:53.407Z,37.60
2023-02-24T02:10:20.924Z,35.07
2023-02-24T02:12:48.258Z,32.27
2023-02-24T02:15:20.660Z,32.97
2023-02-24T02:17:48.037Z,29.17
2023-02-24T02:20:38.589Z,28.93
2023-02-24T02:23:12.065Z,29.07
2023-02-24T02:25:57.918Z,27.77
2023-02-24T02:28:54.054Z,28.93
2023-02-24T02:31:40.189Z,27.17
2023-02-24T02:34:16.897Z,27.67
2023-02-24T02:36:59.331Z,27.90
2023-02-24T02:39:26.779Z,26.93
2023-02-24T02:42:02.154Z,25.83
2023-02-24T02:44:36.633Z,24.07
2023-02-24T02:47:08.980Z,22.57
2023-02-24T02:49:41.023Z,23.57
2023-02-24T02:52:15.492Z,24.13
2023-02-24T02:54:49.688Z,23.97
2023-02-24T02:57:25.679Z,25.40
2023-02-24T02:59:55.300Z,25.57
2023-02-24T03:02:28.441Z,22.93
2023-02-24T03:04:59.133Z,24.37
2023-02-24T03:07:31.366Z,27.07
2023-02-24T03:10:03.903Z,27.50
2023-02-24T03:12:32.919Z,25.63
2023-02-24T03:15:07.632Z,26.93
2023-02-24T03:17:41.390Z,26.80
2023-02-24T03:20:13.335Z,23.93
2023-02-24T03:22:42.908Z,22.57
2023-02-24T03:25:12.112Z,22.00
2023-02-24T03:27:50.151Z,21.00
2023-02-24T03:30:21.267Z,18.30
2023-02-24T03:33:01.803Z,21.13
2023-02-24T03:35:32.069Z,21.70
2023-02-24T03:38:03.030Z,19.83
2023-02-24T03:40:33.894Z,20.00
2023-02-24T03:43:05.133Z,22.13
2023-02-24T03:45:35.016Z,22.00
2023-02-24T03:48:03.896Z,20.97
2023-02-24T03:50:32.410Z,20.37
2023-02-24T03:53:17.624Z,18.03
2023-02-24T03:55:48.515Z,21.60
2023-02-24T03:58:22.950Z,17.70
2023-02-24T04:01:09.398Z,22.80
2023-02-24T04:03:46.187Z,21.43
2023-02-24T04:06:36.688Z,20.83
2023-02-24T04:09:08.831Z,18.57
2023-02-24T04:11:48.822Z,23.83
2023-02-24T04:14:24.965Z,22.17
2023-02-24T04:17:01.204Z,24.13
2023-02-24T04:19:30.558Z,21.10
2023-02-24T04:21:57.984Z,21.93
2023-02-24T04:24:29.405Z,23.80
2023-02-24T04:26:59.236Z,20.47
2023-02-24T04:29:29.779Z,18.13
2023-02-24T04:32:03.251Z,17.17
2023-02-24T04:34:32.603Z,18.03
2023-02-24T04:37:02.412Z,18.97
2023-02-24T04:39:31.168Z,18.30
2023-02-24T04:42:01.769Z,22.90
2023-02-24T04:44:29.144Z,21.80
2023-02-24T04:46:56.563Z,23.67
2023-02-24T04:49:23.830Z,20.93
2023-02-24T04:51:51.612Z,21.40
2023-02-24T04:54:20.312Z,26.97
2023-02-24T04:56:51.115Z,26.83
2023-02-24T04:59:19.292Z,27.80
2023-02-24T05:01:46.848Z,27.40
2023-02-24T05:04:15.555Z,26.90
2023-02-24T05:06:44.403Z,25.37
2023-02-24T05:09:18.855Z,29.10
2023-02-24T05:11:48.955Z,24.73
2023-02-24T05:14:18.096Z,24.10
2023-02-24T05:16:46.443Z,27.70
2023-02-24T05:19:33.828Z,24.00
2023-02-24T05:22:03.141Z,24.37
2023-02-24T05:24:31.690Z,26.60
2023-02-24T05:27:03.731Z,25.43
2023-02-24T05:29:33.064Z,25.27
2023-02-24T05:32:00.841Z,23.03
2023-02-24T05:34:30.694Z,25.30
2023-02-24T05:36:58.983Z,20.83
2023-02-24T05:39:27.061Z,25.93
2023-02-24T05:41:54.975Z,22.50
2023-02-24T05:44:23.845Z,20.27
2023-02-24T05:46:56.618Z,15.60
2023-02-24T05:49:26.900Z,13.50
2023-02-24T05:51:56.077Z,17.33
2023-02-24T05:54:30.582Z,14.70
2023-02-24T05:57:27.434Z,16.17
2023-02-24T05:59:55.822Z,13.60
2023-02-24T06:02:27.607Z,12.13
2023-02-24T06:04:55.668Z,11.20
2023-02-24T06:07:26.902Z,9.37
2023-02-24T06:09:56.566Z,11.97
2023-02-24T06:12:25.475Z,10.17
2023-02-24T06:14:53.108Z,10.97
2023-02-24T06:17:21.628Z,10.33
2023-02-24T06:19:51.185Z,9.87
2023-02-24T06:22:19.505Z,11.50
2023-02-24T06:24:49.235Z,10.00
2023-02-24T06:27:18.640Z,19.40
2023-02-24T06:29:48.043Z,14.97
2023-02-24T06:32:15.539Z,7.67
2023-02-24T06:34:42.870Z,7.50
2023-02-24T06:37:13.011Z,6.70
2023-02-24T06:39:40.696Z,8.90
2023-02-24T06:42:08.881Z,5.90
2023-02-24T06:44:38.334Z,5.37
2023-02-24T06:47:07.353Z,8.60
2023-02-24T06:49:34.898Z,8.77
2023-02-24T06:52:03.258Z,7.90
2023-02-24T06:54:35.776Z,6.13
2023-02-24T06:57:04.005Z,10.03
2023-02-24T06:59:32.203Z,7.80
2023-02-24T07:02:02.010Z,7.20
2023-02-24T07:04:29.967Z,11.47
2023-02-24T07:07:02.840Z,8.10
2023-02-24T07:09:30.842Z,8.73
2023-02-24T07:11:58.846Z,8.63
2023-02-24T07:14:27.411Z,7.70
2023-02-24T07:16:55.482Z,10.13
2023-02-24T07:19:24.345Z,6.40
2023-02-24T07:21:52.793Z,8.90
2023-02-24T07:24:33.243Z,11.70
2023-02-24T07:27:01.914Z,10.60
2023-02-24T07:29:30.449Z,7.73
2023-02-24T07:32:03.436Z,9.10
2023-02-24T07:34:31.179Z,9.10
2023-02-24T07:36:58.468Z,6.57
2023-02-24T07:39:26.442Z,8.73
2023-02-24T07:41:59.354Z,6.20
2023-02-24T07:44:26.762Z,8.93
2023-02-24T07:46:55.031Z,7.27
2023-02-24T07:49:25.876Z,9.93
2023-02-24T07:51:57.750Z,7.60
2023-02-24T07:54:27.235Z,13.07
2023-02-24T07:56:58.875Z,12.50
2023-02-24T07:59:28.196Z,10.43
2023-02-24T08:01:56.158Z,13.37
2023-02-24T08:04:25.394Z,8.47
2023-02-24T08:06:56.409Z,10.70
2023-02-24T08:09:43.982Z,7.80
2023-02-24T08:12:18.316Z,14.00
2023-02-24T08:14:50.730Z,10.67
2023-02-24T08:17:27.902Z,8.60
2023-02-24T08:20:28.348Z,12.17
2023-02-24T08:22:56.566Z,7.90
2023-02-24T08:25:35.175Z,9.90
2023-02-24T08:28:08.481Z,10.70
2023-02-24T08:30:40.519Z,11.50
2023-02-24T08:33:09.339Z,8.80
2023-02-24T08:35:38.864Z,10.67
2023-02-24T08:38:09.755Z,10.07
2023-02-24T08:40:39.782Z,6.67
2023-02-24T08:43:17.780Z,6.37
2023-02-24T08:45:45.034Z,8.93
2023-02-24T08:48:26.236Z,8.97
2023-02-24T08:50:57.535Z,8.93
2023-02-24T08:53:31.383Z,8.20
2023-02-24T08:56:09.442Z,9.53
2023-02-24T08:58:41.108Z,9.37
2023-02-24T09:01:20.126Z,12.13
2023-02-24T09:03:48.698Z,10.13
2023-02-24T09:06:17.456Z,9.83
2023-02-24T09:08:46.155Z,8.63
2023-02-24T09:11:15.084Z,9.60
2023-02-24T09:13:51.641Z,8.47
2023-02-24T09:16:20.197Z,9.37
2023-02-24T09:19:07.929Z,8.10
2023-02-24T09:21:50.280Z,9.63
2023-02-24T09:24:27.244Z,6.20
2023-02-24T09:27:00.770Z,8.97
2023-02-24T09:29:34.024Z,8.90
2023-02-24T09:32:06.100Z,9.97
2023-02-24T09:34:38.464Z,12.30
2023-02-24T09:37:05.993Z,13.00
2023-02-24T09:39:53.037Z,8.23
2023-02-24T09:42:28.456Z,10.93
2023-02-24T09:44:58.332Z,13.80
2023-02-24T09:47:39.576Z,10.50
2023-02-24T09:50:07.194Z,8.63
2023-02-24T09:52:57.573Z,10.73
2023-02-24T09:55:46.307Z,9.50
2023-02-24T09:58:34.768Z,9.40
2023-02-24T10:01:21.771Z,9.27
2023-02-24T10:03:49.269Z,7.90
2023-02-24T10:06:24.742Z,6.50
2023-02-24T10:08:56.706Z,6.47
2023-02-24T10:11:32.893Z,7.13
2023-02-24T10:14:05.831Z,7.33
2023-02-24T10:16:42.888Z,7.87
2023-02-24T10:19:41.308Z,8.97
2023-02-24T10:22:27.584Z,6.30
2023-02-24T10:25:01.564Z,9.63
2023-02-24T10:27:33.827Z,9.40
2023-02-24T10:30:27.953Z,7.93
2023-02-24T10:32:58.823Z,8.13
2023-02-24T10:35:33.919Z,9.63
2023-02-24T10:38:05.290Z,9.20
2023-02-24T10:40:46.227Z,6.07
2023-02-24T10:43:25.311Z,10.67
2023-02-24T10:46:06.052Z,8.27
2023-02-24T10:51:31.838Z,8.83
2023-02-24T10:54:22.370Z,7.00
2023-02-24T10:57:10.039Z,9.10
2023-02-24T11:00:18.630Z,6.40
2023-02-24T11:03:22.129Z,8.83
2023-02-24T11:06:21.353Z,6.23
2023-02-24T11:09:09.036Z,7.63
2023-02-24T11:11:57.461Z,10.80
2023-02-24T11:15:08.281Z,8.50
2023-02-24T11:17:36.925Z,9.70
2023-02-24T11:20:13.377Z,9.47
2023-02-24T11:22:42.596Z,8.10
2023-02-24T11:25:16.869Z,6.20
2023-02-24T11:27:44.448Z,8.97
2023-02-24T11:30:18.114Z,8.20
2023-02-24T11:33:00.715Z,9.13
2023-02-24T11:35:33.526Z,6.83
2023-02-24T11:38:06.502Z,8.13
2023-02-24T11:40:37.918Z,8.13
2023-02-24T11:43:08.404Z,7.37
2023-02-24T11:45:46.562Z,7.53
2023-02-24T11:48:19.732Z,8.97
2023-02-24T11:50:47.277Z,6.73
2023-02-24T11:53:23.852Z,6.63
2023-02-24T11:55:57.030Z,8.73
2023-02-24T11:58:28.063Z,6.47
2023-02-24T12:01:02.228Z,7.43
2023-02-24T12:03:42.943Z,7.07
2023-02-24T12:06:14.989Z,7.43
2023-02-24T12:08:45.110Z,7.57
2023-02-24T12:11:17.054Z,6.77
2023-02-24T12:14:08.502Z,6.47
2023-02-24T12:16:45.992Z,5.87
2023-02-24T12:19:19.911Z,5.90
2023-02-24T12:21:52.718Z,5.40
2023-02-24T12:24:21.420Z,6.20
2023-02-24T12:26:59.358Z,5.20
2023-02-24T12:29:45.680Z,4.63
2023-02-24T12:32:21.061Z,5.17
2023-02-24T12:35:12.110Z,5.23
2023-02-24T12:37:48.811Z,7.30
2023-02-24T12:40:24.915Z,5.90
2023-02-24T12:43:02.287Z,5.93
2023-02-24T12:45:43.849Z,6.87
2023-02-24T12:48:26.591Z,7.03
2023-02-24T12:51:12.757Z,7.20
2023-02-24T12:53:43.432Z,8.60
2023-02-24T12:56:19.320Z,7.50
2023-02-24T12:58:48.771Z,9.20
2023-02-24T13:01:25.465Z,8.17
2023-02-24T13:04:12.519Z,7.90
2023-02-24T13:06:58.238Z,6.53
2023-02-24T13:09:44.531Z,9.23
2023-02-24T13:12:22.040Z,7.63
2023-02-24T13:14:50.303Z,9.17
2023-02-24T13:17:20.078Z,8.53
2023-02-24T13:19:48.254Z,6.23
2023-02-24T13:25:10.926Z,8.70
2023-02-24T13:27:40.161Z,8.43
2023-02-24T13:30:21.378Z,10.70
2023-02-24T13:32:59.671Z,8.47
2023-02-24T13:35:27.081Z,6.43
2023-02-24T13:37:55.339Z,9.07
2023-02-24T13:40:24.009Z,7.27
2023-02-24T13:42:57.463Z,10.13
2023-02-24T13:45:45.156Z,7.53
2023-02-24T13:48:32.029Z,7.57
2023-02-24T13:51:05.459Z,6.50
2023-02-24T13:53:32.978Z,9.87
2023-02-24T13:56:04.941Z,8.00
2023-02-24T13:58:40.731Z,6.27
2023-02-24T14:01:10.649Z,8.93
2023-02-24T14:03:40.229Z,7.80
2023-02-24T14:06:14.890Z,8.30
2023-02-24T14:08:47.813Z,8.33
2023-02-24T14:11:16.536Z,8.17
2023-02-24T14:13:48.430Z,8.23
2023-02-24T14:16:20.660Z,8.17
2023-02-24T14:18:58.393Z,8.00
2023-02-24T14:21:27.552Z,9.20
2023-02-24T14:24:05.737Z,8.43
2023-02-24T14:26:37.225Z,7.83
2023-02-24T14:29:04.630Z,10.23
2023-02-24T14:31:32.021Z,8.77
2023-02-24T14:34:00.941Z,10.97
2023-02-24T14:36:30.464Z,10.03
2023-02-24T14:39:02.749Z,11.90
2023-02-24T14:41:30.114Z,9.50
2023-02-24T14:43:57.756Z,12.47
2023-02-24T14:46:25.452Z,10.43
2023-02-24T14:48:54.831Z,10.67
2023-02-24T14:51:25.096Z,10.80
2023-02-24T14:53:53.694Z,10.20
2023-02-24T14:56:22.306Z,9.97
2023-02-24T14:58:52.441Z,10.93
2023-02-24T15:01:24.049Z,9.37
2023-02-24T15:03:52.872Z,11.17
2023-02-24T15:06:24.070Z,8.33
2023-02-24T15:08:53.545Z,9.10
2023-02-24T15:11:22.515Z,9.20
2023-02-24T15:13:51.813Z,9.57
2023-02-24T15:16:22.150Z,7.20
2023-02-24T15:18:54.095Z,10.73
2023-02-24T15:21:30.030Z,9.00
2023-02-24T15:24:18.558Z,9.87
2023-02-24T15:26:53.614Z,7.10
2023-02-24T15:29:22.151Z,10.43
2023-02-24T15:31:51.561Z,9.40
2023-02-24T15:34:23.720Z,7.37
2023-02-24T15:36:52.493Z,8.97
2023-02-24T15:39:23.687Z,8.70
2023-02-24T15:41:52.201Z,8.60
2023-02-24T15:44:26.224Z,9.77
2023-02-24T15:46:53.692Z,9.30
2023-02-24T15:49:21.039Z,8.67
2023-02-24T15:51:50.412Z,7.70
2023-02-24T15:54:20.407Z,7.93
2023-02-24T15:56:49.174Z,8.70
2023-02-24T15:59:17.232Z,11.23
2023-02-24T16:01:44.615Z,6.73
2023-02-24T16:04:12.070Z,10.10
2023-02-24T16:06:43.376Z,6.93
2023-02-24T16:09:16.503Z,5.70
2023-02-24T16:11:46.167Z,6.37
2023-02-24T16:14:15.639Z,9.73
2023-02-24T16:16:43.059Z,7.50
2023-02-24T16:19:14.205Z,7.43
2023-02-24T16:21:41.846Z,4.83
2023-02-24T16:24:09.066Z,7.57
2023-02-24T16:26:38.306Z,9.63
2023-02-24T16:29:11.728Z,10.57
2023-02-24T16:31:40.058Z,5.80
2023-02-24T16:34:08.167Z,6.63
2023-02-24T16:36:36.381Z,9.00
2023-02-24T16:39:05.106Z,6.77
2023-02-24T16:41:33.304Z,7.47
2023-02-24T16:44:00.678Z,6.63
2023-02-24T16:46:33.532Z,5.97
2023-02-24T16:49:00.927Z,7.40
2023-02-24T16:51:29.081Z,9.07
2023-02-24T16:53:56.492Z,7.30
2023-02-24T16:56:24.172Z,8.13
2023-02-24T16:58:51.613Z,7.97
2023-02-24T17:01:21.153Z,6.67
2023-02-24T17:03:50.282Z,8.63
2023-02-24T17:06:17.649Z,5.47
2023-02-24T17:08:47.106Z,7.80
2023-02-24T17:11:15.640Z,8.17
2023-02-24T17:13:43.773Z,9.17
2023-02-24T17:16:11.520Z,5.83
2023-02-24T17:18:39.041Z,9.37
2023-02-24T17:21:06.763Z,7.93
2023-02-24T17:23:33.996Z,8.93
2023-02-24T17:26:02.804Z,7.23
2023-02-24T17:28:30.814Z,6.97
2023-02-24T17:30:58.205Z,9.67
2023-02-24T17:33:25.597Z,8.40
2023-02-24T17:35:52.849Z,9.43
2023-02-24T17:38:21.600Z,6.87
2023-02-24T17:40:48.936Z,8.47
2023-02-24T17:43:16.407Z,8.10
2023-02-24T17:45:45.078Z,7.37
2023-02-24T17:48:13.996Z,10.43
2023-02-24T17:50:48.416Z,8.23
2023-02-24T17:53:16.252Z,8.20
2023-02-24T17:56:01.149Z,9.97
2023-02-24T17:58:29.095Z,7.73
2023-02-24T18:00:56.525Z,6.90
2023-02-24T18:03:23.916Z,7.80
2023-02-24T18:06:00.543Z,5.97
2023-02-24T18:08:28.053Z,7.47
2023-02-24T18:10:55.255Z,7.10
2023-02-24T18:13:22.573Z,7.00
2023-02-24T18:15:49.886Z,8.27
2023-02-24T18:18:17.377Z,5.80
2023-02-24T18:20:45.479Z,7.87
2023-02-24T18:23:13.018Z,7.33
2023-02-24T18:25:40.811Z,5.97
2023-02-24T18:28:08.881Z,5.27
2023-02-24T18:30:36.320Z,6.03
2023-02-24T18:33:03.929Z,5.80
2023-02-24T18:35:31.517Z,7.50
2023-02-24T18:37:59.099Z,6.07
2023-02-24T18:40:44.836Z,3.93
2023-02-24T18:43:12.152Z,3.77
2023-02-24T18:45:39.787Z,5.27
2023-02-24T18:48:07.081Z,4.53
2023-02-24T18:50:34.670Z,3.40
2023-02-24T18:53:02.038Z,4.37
2023-02-24T18:55:29.889Z,4.40
2023-02-24T18:57:57.121Z,4.20
2023-02-24T19:00:24.448Z,6.07
2023-02-24T19:02:51.770Z,4.43
2023-02-24T19:05:20.440Z,3.67
2023-02-24T19:07:47.680Z,5.70
2023-02-24T19:10:14.961Z,4.40
2023-02-24T19:12:42.164Z,4.40
2023-02-24T19:15:09.665Z,4.57
2023-02-24T19:17:37.036Z,5.70
2023-02-24T19:20:04.467Z,5.20
2023-02-24T19:22:51.708Z,4.47
2023-02-24T19:25:19.540Z,4.00
2023-02-24T19:27:49.575Z,4.77
2023-02-24T19:30:17.007Z,5.20
2023-02-24T19:32:44.404Z,4.00
2023-02-24T19:35:13.673Z,4.50
2023-02-24T19:37:41.226Z,3.90
2023-02-24T19:40:08.744Z,4.17
2023-02-24T19:42:36.081Z,4.27
2023-02-24T19:45:03.427Z,3.43
2023-02-24T19:47:30.650Z,3.57
2023-02-24T19:49:57.952Z,3.00
2023-02-24T19:52:25.249Z,3.63
2023-02-24T19:54:52.710Z,2.93
2023-02-24T19:57:20.017Z,3.17
2023-02-24T19:59:51.913Z,3.97
2023-02-24T20:02:19.382Z,4.03
2023-02-24T20:04:46.783Z,3.73
2023-02-24T20:07:14.267Z,4.60
2023-02-24T20:09:43.163Z,4.30
2023-02-24T20:12:11.483Z,12.30
2023-02-24T20:14:38.883Z,4.33
2023-02-24T20:17:06.500Z,3.63
2023-02-24T20:19:34.404Z,4.40
2023-02-24T20:22:02.397Z,4.80
2023-02-24T20:24:29.938Z,5.10
2023-02-24T20:26:57.588Z,5.90
2023-02-24T20:29:24.997Z,4.50
2023-02-24T20:31:52.649Z,5.73
2023-02-24T20:34:20.632Z,5.30
2023-02-24T20:36:48.099Z,6.43
2023-02-24T20:39:15.513Z,14.73
2023-02-24T20:41:42.996Z,6.67
2023-02-24T20:44:10.877Z,6.70
2023-02-24T20:46:38.395Z,7.43
2023-02-24T20:49:07.543Z,7.27
2023-02-24T20:51:37.038Z,6.57
2023-02-24T20:54:05.042Z,6.73
2023-02-24T20:56:34.112Z,7.07
2023-02-24T20:59:02.821Z,7.23
2023-02-24T21:01:31.041Z,8.50
2023-02-24T21:03:58.884Z,8.33
2023-02-24T21:06:26.624Z,9.17
2023-02-24T21:08:54.337Z,8.50
2023-02-24T21:11:21.854Z,7.93
2023-02-24T21:13:50.549Z,7.60
2023-02-24T21:16:18.564Z,7.70
2023-02-24T21:18:47.041Z,8.17
2023-02-24T21:21:15.317Z,10.07
2023-02-24T21:23:43.611Z,9.90
2023-02-24T21:26:11.137Z,8.40
2023-02-24T21:28:39.015Z,8.67
2023-02-24T21:31:13.848Z,9.03
2023-02-24T21:33:41.214Z,9.97
2023-02-24T21:36:09.728Z,8.10
2023-02-24T21:38:37.377Z,8.10
2023-02-24T21:41:05.980Z,11.07
2023-02-24T21:43:33.913Z,14.37
2023-02-24T21:48:46.764Z,8.80
2023-02-24T21:51:14.286Z,10.03
2023-02-24T21:53:44.411Z,7.23
2023-02-24T21:56:16.575Z,9.03
2023-02-24T21:58:45.895Z,9.10
2023-02-24T22:01:14.424Z,8.03
2023-02-24T22:03:41.899Z,10.13
2023-02-24T22:06:13.188Z,9.07
2023-02-24T22:08:43.533Z,9.40
2023-02-24T22:11:12.260Z,10.33
2023-02-24T22:13:40.229Z,8.73
2023-02-24T22:16:08.493Z,9.47
2023-02-24T22:18:35.883Z,10.27
2023-02-24T22:21:10.006Z,8.30
2023-02-24T22:23:37.308Z,9.50
2023-02-24T22:26:08.738Z,10.90
2023-02-24T22:28:36.891Z,7.37
2023-02-24T22:31:04.303Z,9.20
2023-02-24T22:33:32.681Z,10.27
2023-02-24T22:36:04.321Z,7.93
2023-02-24T22:38:32.838Z,9.50
2023-02-24T22:41:00.675Z,8.73
2023-02-24T22:43:28.782Z,9.00
2023-02-24T22:46:04.252Z,8.87
2023-02-24T22:48:32.465Z,8.80
2023-02-24T22:51:03.528Z,8.37
2023-02-24T22:53:31.889Z,8.67
2023-02-24T22:55:59.161Z,7.57
2023-02-24T22:58:26.990Z,10.33
2023-02-24T23:00:54.663Z,13.13
2023-02-24T23:03:23.645Z,9.40
2023-02-24T23:06:01.588Z,9.83
2023-02-24T23:08:29.807Z,9.83
2023-02-24T23:10:57.415Z,9.53
2023-02-24T23:13:24.658Z,9.40
2023-02-24T23:15:52.697Z,10.97
2023-02-24T23:18:19.962Z,9.73
2023-02-24T23:20:48.980Z,9.23
2023-02-24T23:23:16.267Z,12.07
2023-02-24T23:25:51.219Z,10.37
2023-02-24T23:28:19.233Z,11.23
2023-02-24T23:30:46.938Z,10.37
2023-02-24T23:33:14.555Z,11.77
2023-02-24T23:35:42.258Z,11.07
2023-02-24T23:38:10.221Z,9.73
2023-02-24T23:40:49.643Z,8.93
2023-02-24T23:43:17.642Z,9.67
2023-02-24T23:45:44.966Z,9.07
2023-02-24T23:48:13.973Z,8.90
2023-02-24T23:50:41.844Z,11.20
2023-02-24T23:53:09.695Z,9.13
2023-02-24T23:55:39.141Z,9.30
2023-02-24T23:58:06.392Z,7.97
